Time;durP1;ratioP1;P1;durP2;ratioP2;P2;SDS_P1;SDS_P2;PMS_P1;PMS_P2;Temp;Humidity;BMP_temperature;BMP_pressure;BME280_temperature;BME280_humidity;BME280_pressure;Samples;Min_cycle;Max_cycle;Signal;HPM_P1;HPM_P2
2022/11/08 00:01:30;;;;;;;0.10;0.10;;;10.50;99.90;9.50;97228.00;;;;5029960;28;20202;-76
2022/11/08 00:03:10;;;;;;;0.10;0.10;;;10.60;99.90;9.60;97210.00;;;;5034936;28;20223;-76
2022/11/08 00:13:59;;;;;;;0.10;0.10;;;10.20;99.90;9.20;97210.00;;;;5038497;28;20207;-74
2022/11/08 00:16:28;;;;;;;0.10;0.10;;;10.10;99.90;9.10;97197.00;;;;5038333;28;20245;-75
2022/11/08 00:18:57;;;;;;;0.10;0.10;;;10.00;99.90;9.00;97190.00;;;;5037619;28;20230;-76
2022/11/08 00:21:25;;;;;;;0.10;0.10;;;10.00;99.90;9.00;97190.00;;;;5036065;28;20539;-75
2022/11/08 00:23:53;;;;;;;0.10;0.10;;;10.00;99.90;9.00;97190.00;;;;5036269;28;20230;-75
2022/11/08 00:26:22;;;;;;;0.10;0.10;;;10.00;99.90;9.00;97182.00;;;;5034606;28;20187;-75
2022/11/08 00:28:50;;;;;;;0.10;0.10;;;10.00;99.90;9.00;97188.00;;;;5033439;28;20191;-75
2022/11/08 00:31:19;;;;;;;0.10;0.10;;;10.00;99.90;9.00;97180.00;;;;5034111;28;20196;-75
2022/11/08 00:33:47;;;;;;;0.10;0.10;;;10.00;99.90;9.00;97180.00;;;;5036267;28;20218;-75
2022/11/08 00:36:15;;;;;;;0.10;0.10;;;10.00;99.90;9.00;97181.00;;;;5033390;28;20662;-76
2022/11/08 00:38:44;;;;;;;0.10;0.10;;;9.90;99.90;9.00;97177.00;;;;5033310;28;20234;-75
2022/11/08 00:41:12;;;;;;;0.10;0.10;;;10.00;99.90;9.00;97185.00;;;;5029922;28;20203;-75
2022/11/08 00:43:40;;;;;;;0.10;0.10;;;10.00;99.90;9.10;97177.00;;;;5029765;28;20699;-75
2022/11/08 00:46:09;;;;;;;0.10;0.10;;;10.00;99.90;9.10;97170.00;;;;5033587;28;20226;-75
2022/11/08 00:48:38;;;;;;;0.10;0.10;;;10.00;99.90;9.10;97180.00;;;;5032840;28;20211;-76
2022/11/08 00:51:10;;;;;;;0.00;0.00;;;10.10;99.90;9.10;97182.00;;;;5027830;28;20253;-75
2022/11/08 00:53:40;;;;;;;0.10;0.10;;;10.10;99.90;9.10;97183.00;;;;5051637;22;20239;-74
2022/11/08 00:56:12;;;;;;;0.10;0.10;;;10.10;99.90;9.10;97182.00;;;;5027214;28;20206;-73
2022/11/08 00:58:42;;;;;;;0.10;0.10;;;10.10;99.90;9.10;97180.00;;;;5029933;28;20558;-74
2022/11/08 01:01:13;;;;;;;0.10;0.10;;;10.10;99.90;9.10;97184.00;;;;5022524;28;20607;-74
2022/11/08 01:03:43;;;;;;;0.10;0.10;;;10.10;99.90;9.10;97183.00;;;;5022111;28;20330;-74
2022/11/08 01:06:14;;;;;;;0.10;0.10;;;10.10;99.90;9.20;97176.00;;;;5019532;28;20231;-74
2022/11/08 01:08:43;;;;;;;0.10;0.10;;;10.10;99.90;9.10;97146.00;;;;5021909;28;20207;-74
2022/11/08 01:11:16;;;;;;;0.10;0.10;;;10.10;99.90;9.10;97183.00;;;;5018344;28;20208;-73
2022/11/08 01:13:45;;;;;;;0.10;0.10;;;10.10;99.90;9.20;97185.00;;;;5003696;28;20278;-75
2022/11/08 01:16:16;;;;;;;0.00;0.00;;;10.10;99.90;9.10;97174.00;;;;5021360;28;20203;-75
2022/11/08 01:18:49;;;;;;;0.10;0.10;;;10.10;99.90;9.10;97183.00;;;;5023989;28;20205;-75
2022/11/08 01:21:18;;;;;;;0.10;0.10;;;10.10;99.90;9.10;97171.00;;;;5021880;28;20199;-75
2022/11/08 01:23:46;;;;;;;0.10;0.10;;;10.10;99.90;9.10;97175.00;;;;5017240;28;20730;-75
2022/11/08 01:26:18;;;;;;;0.10;0.10;;;10.10;99.90;9.10;97169.00;;;;5025282;28;20191;-75
2022/11/08 01:28:47;;;;;;;0.10;0.10;;;10.10;99.90;9.00;97169.00;;;;5024748;28;20659;-76
2022/11/08 01:31:18;;;;;;;0.03;0.03;;;10.00;99.90;9.00;97177.00;;;;5017406;28;20253;-76
2022/11/08 01:33:49;;;;;;;0.10;0.10;;;10.00;99.90;9.00;97168.00;;;;5028888;28;20245;-75
2022/11/08 01:36:22;;;;;;;0.10;0.10;;;9.90;99.90;8.90;97168.00;;;;5020922;28;20270;-76
2022/11/08 01:38:50;;;;;;;0.10;0.10;;;9.90;99.90;8.90;97167.00;;;;5023170;28;20670;-75
2022/11/08 01:41:21;;;;;;;0.10;0.10;;;9.90;99.90;8.80;97171.00;;;;5021820;28;20195;-75
2022/11/08 01:43:50;;;;;;;0.00;0.00;;;9.80;99.90;8.80;97167.00;;;;5021281;28;20223;-75
2022/11/08 01:46:43;;;;;;;0.10;0.10;;;9.80;99.90;8.80;97148.00;;;;5012955;28;20728;-75
2022/11/08 01:49:39;;;;;;;0.10;0.10;;;9.80;99.90;8.80;97134.00;;;;5011465;28;20199;-75
2022/11/08 01:52:20;;;;;;;0.10;0.10;;;9.80;99.90;8.70;97154.00;;;;5016844;28;20195;-75
2022/11/08 01:55:03;;;;;;;0.10;0.10;;;9.70;99.90;8.70;97142.00;;;;5017990;28;20708;-75
2022/11/08 01:57:38;;;;;;;0.10;0.10;;;9.70;99.90;8.80;97139.00;;;;5027169;28;20248;-75
2022/11/08 02:00:11;;;;;;;0.10;0.10;;;9.80;99.90;8.80;97120.00;;;;5014026;28;20666;-75
2022/11/08 02:02:43;;;;;;;0.10;0.10;;;9.70;99.90;8.70;97136.00;;;;5021898;28;20222;-75
2022/11/08 02:05:26;;;;;;;0.10;0.10;;;9.70;99.90;8.70;97122.00;;;;5015937;28;20207;-75
2022/11/08 02:08:00;;;;;;;0.10;0.10;;;9.70;99.90;8.60;97123.00;;;;5022910;28;20249;-75
2022/11/08 02:10:35;;;;;;;0.10;0.10;;;9.60;99.90;8.60;97125.00;;;;5026727;28;20196;-76
2022/11/08 02:13:07;;;;;;;0.10;0.10;;;9.60;99.90;8.60;97132.00;;;;4994030;28;20221;-75
2022/11/08 02:15:42;;;;;;;0.10;0.10;;;9.60;99.90;8.70;97117.00;;;;5016163;28;20192;-75
2022/11/08 02:18:10;;;;;;;0.10;0.10;;;9.70;99.90;8.70;97120.00;;;;5019842;28;20209;-75
2022/11/08 02:20:46;;;;;;;0.10;0.10;;;9.70;99.90;8.70;97121.00;;;;5022582;28;20192;-76
2022/11/08 02:23:24;;;;;;;0.10;0.10;;;9.70;99.90;8.70;97120.00;;;;5017049;28;20221;-76
2022/11/08 02:25:57;;;;;;;0.10;0.10;;;9.70;99.90;8.70;97125.00;;;;5022995;28;20646;-75
2022/11/08 02:28:25;;;;;;;0.10;0.10;;;9.70;99.90;8.70;97129.00;;;;5025077;28;20199;-75
2022/11/08 02:30:53;;;;;;;0.10;0.10;;;9.70;99.90;8.70;97129.00;;;;5008461;28;20265;-75
2022/11/08 02:33:23;;;;;;;0.10;0.10;;;9.70;99.90;8.60;97138.00;;;;5012157;28;20216;-75
2022/11/08 02:35:55;;;;;;;0.10;0.10;;;9.60;99.90;8.60;97140.00;;;;5019818;28;20241;-75
2022/11/08 02:38:26;;;;;;;0.00;0.00;;;9.60;99.90;8.50;97124.00;;;;5028559;28;20249;-75
2022/11/08 02:40:57;;;;;;;0.10;0.10;;;9.60;99.90;8.50;97120.00;;;;5025492;28;20210;-76
2022/11/08 02:43:26;;;;;;;0.10;0.10;;;9.50;99.90;8.50;97127.00;;;;5009798;28;20253;-76
2022/11/08 02:45:54;;;;;;;0.00;0.00;;;9.50;99.90;8.50;97116.00;;;;5009537;28;20279;-76
2022/11/08 02:48:22;;;;;;;0.10;0.10;;;9.50;99.90;8.50;97114.00;;;;5017025;28;20195;-76
2022/11/08 02:50:50;;;;;;;0.10;0.10;;;9.50;99.90;8.50;97111.00;;;;5006641;28;20196;-75
2022/11/08 02:53:19;;;;;;;0.10;0.10;;;9.50;99.90;8.40;97118.00;;;;5008111;28;20601;-75
2022/11/08 02:55:48;;;;;;;0.10;0.10;;;9.40;99.90;8.40;97130.00;;;;5002024;28;20204;-75
2022/11/08 02:58:17;;;;;;;0.10;0.10;;;9.40;99.90;8.40;97124.00;;;;5022670;28;20677;-75
2022/11/08 03:00:46;;;;;;;0.10;0.10;;;9.40;99.90;8.40;97121.00;;;;5009359;28;20593;-76
2022/11/08 03:03:14;;;;;;;0.10;0.10;;;9.40;99.90;8.30;97117.00;;;;5016464;28;20215;-76
2022/11/08 03:05:42;;;;;;;0.10;0.10;;;9.40;99.90;8.30;97139.00;;;;5013334;28;20203;-76
2022/11/08 03:08:10;;;;;;;0.10;0.10;;;9.40;99.90;8.30;97122.00;;;;5022111;28;20191;-76
2022/11/08 03:10:39;;;;;;;0.10;0.10;;;9.40;99.90;8.40;97101.00;;;;5020335;28;20200;-76
2022/11/08 03:13:07;;;;;;;0.10;0.10;;;9.40;99.90;8.40;97091.00;;;;5019727;28;20225;-76
2022/11/08 03:15:37;;;;;;;0.08;0.08;;;9.40;99.90;8.30;97097.00;;;;5019835;28;20207;-76
2022/11/08 03:18:05;;;;;;;0.10;0.10;;;9.40;99.90;8.40;97103.00;;;;5001670;28;20199;-76
2022/11/08 03:20:33;;;;;;;0.10;0.10;;;9.40;99.90;8.40;97102.00;;;;5007838;28;20274;-76
2022/11/08 03:23:05;;;;;;;0.10;0.10;;;9.40;99.90;8.40;97106.00;;;;4996797;28;20769;-76
2022/11/08 03:25:34;;;;;;;0.10;0.10;;;9.40;99.90;8.30;97107.00;;;;5006800;28;20226;-76
2022/11/08 03:28:03;;;;;;;0.10;0.10;;;9.40;99.90;8.30;97117.00;;;;5019158;28;20198;-76
2022/11/08 03:30:31;;;;;;;0.10;0.10;;;9.40;99.90;8.40;97115.00;;;;5019235;28;20567;-76
2022/11/08 03:33:01;;;;;;;0.10;0.10;;;9.40;99.90;8.30;97109.00;;;;5022020;28;20558;-76
2022/11/08 03:35:29;;;;;;;0.10;0.10;;;9.40;99.90;8.30;97105.00;;;;5013137;28;20192;-75
2022/11/08 03:37:57;;;;;;;0.00;0.00;;;9.40;99.90;8.40;97108.00;;;;5018993;28;20218;-75
2022/11/08 03:40:26;;;;;;;0.08;0.08;;;9.40;99.90;8.30;97107.00;;;;5031529;28;20203;-75
2022/11/08 03:42:57;;;;;;;0.10;0.10;;;9.40;99.90;8.40;97098.00;;;;5026249;28;20212;-76
2022/11/08 03:45:25;;;;;;;0.10;0.10;;;9.50;99.90;8.40;97118.00;;;;5011728;28;20206;-76
2022/11/08 03:47:53;;;;;;;0.10;0.10;;;9.50;99.90;8.40;97111.00;;;;5014779;28;20200;-76
2022/11/08 03:50:23;;;;;;;0.10;0.10;;;9.50;99.90;8.50;97125.00;;;;5012431;28;20194;-76
2022/11/08 03:52:54;;;;;;;0.00;0.00;;;9.60;99.90;8.50;97122.00;;;;5013569;28;20231;-76
2022/11/08 03:55:26;;;;;;;0.10;0.10;;;9.50;99.90;8.30;97129.00;;;;5020341;28;20727;-76
2022/11/08 03:57:55;;;;;;;0.10;0.10;;;9.40;99.90;8.30;97121.00;;;;5012266;28;20204;-76
2022/11/08 04:00:27;;;;;;;0.00;0.00;;;9.40;99.90;8.30;97124.00;;;;5016957;28;20188;-75
2022/11/08 04:03:02;;;;;;;0.10;0.10;;;9.40;99.90;8.30;97128.00;;;;5014876;28;20265;-74
2022/11/08 04:05:32;;;;;;;0.10;0.10;;;9.40;99.90;8.30;97103.00;;;;5024562;28;20198;-74
2022/11/08 04:08:01;;;;;;;0.10;0.10;;;9.40;99.90;8.40;97127.00;;;;5022644;28;20230;-76
2022/11/08 04:10:30;;;;;;;0.10;0.10;;;9.40;99.90;8.30;97124.00;;;;5015745;28;20196;-76
2022/11/08 04:15:47;;;;;;;0.10;0.10;;;9.20;99.90;8.20;97138.00;;;;5016088;28;20645;-77
2022/11/08 04:23:49;;;;;;;0.10;0.10;;;9.20;99.90;8.00;97123.00;;;;5014426;28;20212;-76
2022/11/08 04:26:18;;;;;;;0.10;0.10;;;9.10;99.90;8.00;97124.00;;;;5021643;28;20640;-75
2022/11/08 04:28:46;;;;;;;0.10;0.10;;;9.10;99.90;7.90;97127.00;;;;5017735;28;20560;-76
2022/11/08 04:31:18;;;;;;;0.10;0.10;;;9.00;99.90;7.90;97120.00;;;;5021284;28;20270;-75
2022/11/08 04:33:47;;;;;;;0.10;0.10;;;8.90;99.90;7.80;97120.00;;;;5011763;28;20223;-75
2022/11/08 04:36:17;;;;;;;0.10;0.10;;;8.90;99.90;7.80;97124.00;;;;5023412;28;20195;-75
2022/11/08 04:38:48;;;;;;;0.08;0.08;;;8.90;99.90;7.80;97120.00;;;;5012578;28;20204;-75
2022/11/08 04:41:19;;;;;;;0.10;0.10;;;8.90;99.90;7.70;97118.00;;;;5007123;28;20601;-76
2022/11/08 04:43:48;;;;;;;0.10;0.10;;;8.80;99.90;7.70;97126.00;;;;5009178;28;20231;-76
2022/11/08 04:46:19;;;;;;;0.10;0.10;;;8.80;99.90;7.70;97120.00;;;;5006254;28;20196;-76
2022/11/08 04:48:50;;;;;;;0.10;0.10;;;8.70;99.90;7.60;97075.00;;;;5016778;28;20199;-76
2022/11/08 04:51:22;;;;;;;0.10;0.10;;;8.70;99.90;7.60;97125.00;;;;5010979;28;20200;-75
2022/11/08 04:53:50;;;;;;;0.10;0.10;;;8.70;99.90;7.60;97120.00;;;;5006818;28;20232;-76
2022/11/08 04:56:21;;;;;;;0.10;0.10;;;8.70;99.90;7.50;97115.00;;;;5015039;28;20211;-76
2022/11/08 04:58:51;;;;;;;0.10;0.10;;;8.60;99.90;7.50;97113.00;;;;4991096;28;20196;-76
2022/11/08 05:01:22;;;;;;;0.10;0.10;;;8.60;99.90;7.50;97116.00;;;;4989597;28;20208;-76
2022/11/08 05:03:53;;;;;;;0.10;0.10;;;8.50;99.90;7.50;97108.00;;;;5020963;28;20337;-76
2022/11/08 05:06:25;;;;;;;0.10;0.10;;;8.60;99.90;7.50;97109.00;;;;5020258;28;20265;-76
2022/11/08 05:08:57;;;;;;;0.10;0.10;;;8.60;99.90;7.50;97119.00;;;;5010820;28;20253;-76
2022/11/08 05:11:29;;;;;;;0.10;0.10;;;8.60;99.90;7.50;97110.00;;;;5023749;28;20206;-76
2022/11/08 05:13:58;;;;;;;0.10;0.10;;;8.60;99.90;7.50;97111.00;;;;5013141;28;20730;-75
2022/11/08 05:16:29;;;;;;;0.10;0.10;;;8.50;99.90;7.50;97125.00;;;;5008655;28;20238;-76
2022/11/08 05:18:57;;;;;;;0.10;0.10;;;8.50;99.90;7.40;97109.00;;;;5013381;28;20199;-76
2022/11/08 05:24:16;;;;;;;0.10;0.10;;;8.50;99.90;7.40;97115.00;;;;5012216;28;20227;-76
2022/11/08 05:26:47;;;;;;;0.10;0.10;;;8.50;99.90;7.30;97107.00;;;;5013195;28;20286;-76
2022/11/08 05:29:16;;;;;;;0.10;0.10;;;8.50;99.90;7.30;97112.00;;;;5023844;28;20195;-76
2022/11/08 05:31:44;;;;;;;0.10;0.10;;;8.40;99.90;7.30;97104.00;;;;5010931;28;20212;-76
2022/11/08 05:34:13;;;;;;;0.10;0.10;;;8.40;99.90;7.30;97098.00;;;;5012961;28;20215;-76
2022/11/08 05:36:42;;;;;;;0.10;0.10;;;8.40;99.90;7.30;97107.00;;;;4999646;28;20231;-77
2022/11/08 05:39:10;;;;;;;0.10;0.10;;;8.40;99.90;7.30;97100.00;;;;5009080;28;20197;-78
2022/11/08 05:41:38;;;;;;;0.10;0.10;;;8.40;99.90;7.30;97103.00;;;;5011967;28;20203;-77
2022/11/08 05:44:07;;;;;;;0.10;0.10;;;8.40;99.90;7.30;97113.00;;;;5005660;28;20707;-77
2022/11/08 05:46:35;;;;;;;0.10;0.10;;;8.40;99.90;7.30;97098.00;;;;5018273;28;20234;-77
2022/11/08 05:49:10;;;;;;;0.00;0.00;;;8.40;99.90;7.30;97092.00;;;;5013606;28;20199;-77
2022/11/08 05:51:38;;;;;;;0.10;0.10;;;8.40;99.90;7.30;97113.00;;;;5002217;28;20203;-78
2022/11/08 05:54:08;;;;;;;0.10;0.10;;;8.40;99.90;7.30;97111.00;;;;5018322;28;20223;-78
2022/11/08 05:56:36;;;;;;;0.10;0.10;;;8.40;99.90;7.30;96946.00;;;;5020837;28;20196;-78
2022/11/08 05:59:05;;;;;;;0.10;0.10;;;8.40;99.90;7.30;97086.00;;;;5020779;28;20214;-77
2022/11/08 06:01:33;;;;;;;0.10;0.10;;;8.40;99.90;7.30;97154.00;;;;5014604;28;20198;-76
2022/11/08 06:04:11;;;;;;;0.10;0.10;;;8.40;99.90;7.30;97107.00;;;;5019889;28;20214;-77
2022/11/08 06:06:39;;;;;;;0.10;0.10;;;8.40;99.90;7.20;97111.00;;;;5022022;28;20195;-77
2022/11/08 06:09:09;;;;;;;0.10;0.10;;;8.50;99.90;7.40;97102.00;;;;5017122;28;20278;-74
2022/11/08 06:11:37;;;;;;;0.10;0.10;;;8.50;99.90;7.40;97098.00;;;;5013911;28;20282;-75
2022/11/08 06:14:06;;;;;;;0.10;0.10;;;8.50;99.90;7.40;97096.00;;;;5007261;28;20639;-74
2022/11/08 06:16:34;;;;;;;0.10;0.10;;;8.50;99.90;7.50;97093.00;;;;5009594;28;20215;-74
2022/11/08 06:19:02;;;;;;;0.10;0.10;;;8.60;99.90;7.50;97081.00;;;;5010895;28;20196;-72
2022/11/08 06:21:30;;;;;;;0.00;0.00;;;8.60;99.90;7.50;97092.00;;;;5014349;28;20199;-73
2022/11/08 06:23:58;;;;;;;0.10;0.10;;;8.50;99.90;7.50;97089.00;;;;5005763;28;20232;-74
2022/11/08 06:26:28;;;;;;;0.10;0.10;;;8.60;99.90;7.50;97086.00;;;;5006683;28;20192;-73
2022/11/08 06:28:56;;;;;;;0.10;0.10;;;8.60;99.90;7.50;97090.00;;;;5008974;28;20196;-72
2022/11/08 06:31:24;;;;;;;0.10;0.10;;;8.60;99.90;7.50;97093.00;;;;5002757;28;20220;-73
2022/11/08 06:33:52;;;;;;;0.10;0.10;;;8.60;99.90;7.50;97087.00;;;;5005710;28;20211;-73
2022/11/08 06:36:20;;;;;;;0.10;0.10;;;8.60;99.90;7.50;97097.00;;;;5012144;28;20212;-72
2022/11/08 06:38:53;;;;;;;0.10;0.10;;;8.60;99.90;7.50;97082.00;;;;5013297;28;20207;-72
2022/11/08 06:41:23;;;;;;;0.10;0.10;;;8.60;99.90;7.60;97078.00;;;;5013892;28;20676;-72
2022/11/08 06:43:52;;;;;;;0.10;0.10;;;8.60;99.90;7.60;97073.00;;;;5014844;28;20220;-72
2022/11/08 06:46:21;;;;;;;0.10;0.10;;;8.60;99.90;7.60;97085.00;;;;5009920;28;20205;-73
2022/11/08 06:48:49;;;;;;;0.10;0.10;;;8.70;99.90;7.60;97047.00;;;;5011893;28;20203;-74
2022/11/08 06:51:18;;;;;;;0.10;0.10;;;8.70;99.90;7.60;97042.00;;;;5015312;28;20199;-73
2022/11/08 06:53:46;;;;;;;0.10;0.10;;;8.70;99.90;7.70;97095.00;;;;5011451;28;20301;-73
2022/11/08 06:56:14;;;;;;;0.10;0.10;;;8.80;99.90;7.80;97088.00;;;;5005767;28;20286;-73
2022/11/08 06:58:43;;;;;;;0.10;0.10;;;8.80;99.90;7.80;97089.00;;;;5007749;28;20226;-73
2022/11/08 07:01:12;;;;;;;0.00;0.00;;;8.90;99.90;7.80;97089.00;;;;5005286;28;20196;-73
2022/11/08 07:03:40;;;;;;;0.10;0.10;;;8.90;99.90;7.90;97109.00;;;;5008141;28;20229;-73
2022/11/08 07:06:09;;;;;;;0.10;0.10;;;8.90;99.90;7.90;97078.00;;;;5007729;28;20203;-73
2022/11/08 07:08:37;;;;;;;0.10;0.10;;;9.00;99.90;8.00;97089.00;;;;5007878;28;20531;-73
2022/11/08 07:11:06;;;;;;;0.10;0.10;;;9.00;99.90;7.90;97096.00;;;;5005985;28;20199;-73
2022/11/08 07:13:34;;;;;;;0.10;0.10;;;9.00;99.90;8.00;97091.00;;;;5006656;28;20230;-73
2022/11/08 07:16:02;;;;;;;0.10;0.10;;;9.00;99.90;8.00;97101.00;;;;4996253;28;20222;-73
2022/11/08 07:18:32;;;;;;;0.10;0.10;;;9.00;99.90;8.00;97088.00;;;;5013883;28;20223;-73
2022/11/08 07:21:02;;;;;;;0.10;0.10;;;9.10;99.90;8.10;97091.00;;;;5024884;28;20195;-73
2022/11/08 07:23:31;;;;;;;0.10;0.10;;;9.10;99.90;7.90;97089.00;;;;5003982;28;20300;-73
2022/11/08 07:26:02;;;;;;;0.10;0.10;;;9.10;99.90;8.10;97091.00;;;;5013307;28;20198;-73
2022/11/08 07:28:31;;;;;;;0.10;0.10;;;9.10;99.90;8.10;97077.00;;;;5024077;28;20203;-73
2022/11/08 07:31:03;;;;;;;0.10;0.10;;;9.10;99.90;8.10;97081.00;;;;5021331;28;20195;-73
2022/11/08 07:33:33;;;;;;;0.10;0.10;;;9.10;99.90;8.10;97042.00;;;;5034967;28;20218;-73
2022/11/08 07:36:02;;;;;;;0.10;0.10;;;9.10;99.90;8.20;97071.00;;;;5034022;28;20234;-73
2022/11/08 07:38:30;;;;;;;0.03;0.03;;;9.20;99.90;8.20;97090.00;;;;5022431;28;20226;-73
2022/11/08 07:41:00;;;;;;;0.10;0.10;;;9.20;99.90;8.20;97084.00;;;;5016741;28;20195;-73
2022/11/08 07:43:29;;;;;;;0.10;0.10;;;9.20;99.90;8.20;97086.00;;;;5018121;28;20215;-73
2022/11/08 07:46:10;;;;;;;0.10;0.10;;;9.20;99.90;8.20;97085.00;;;;5004796;28;20207;-73
2022/11/08 07:48:39;;;;;;;0.10;0.10;;;9.30;99.90;8.20;97095.00;;;;5011844;28;20258;-74
2022/11/08 07:51:07;;;;;;;0.10;0.10;;;9.30;99.90;8.30;97096.00;;;;5019308;28;20250;-74
2022/11/08 07:53:35;;;;;;;0.10;0.10;;;9.30;99.90;8.30;97101.00;;;;5013236;28;20969;-74
2022/11/08 07:56:04;;;;;;;0.10;0.10;;;9.30;99.90;8.40;97085.00;;;;5014552;28;20313;-74
2022/11/08 07:58:33;;;;;;;0.10;0.10;;;9.40;99.90;8.40;97090.00;;;;5001664;28;20207;-73
2022/11/08 08:01:03;;;;;;;0.10;0.10;;;9.40;99.90;8.50;97114.00;;;;5010390;28;20707;-73
2022/11/08 08:03:31;;;;;;;0.10;0.10;;;9.50;99.90;8.50;97101.00;;;;5008265;28;20255;-74
2022/11/08 08:06:01;;;;;;;0.10;0.10;;;9.50;99.90;8.60;97105.00;;;;5011485;28;20198;-73
2022/11/08 08:08:30;;;;;;;0.10;0.10;;;9.60;99.90;8.50;97094.00;;;;5007593;28;20716;-74
2022/11/08 08:11:00;;;;;;;0.10;0.10;;;9.60;99.90;8.60;97105.00;;;;5009202;28;20204;-74
2022/11/08 08:13:29;;;;;;;0.10;0.10;;;9.60;99.90;8.60;97093.00;;;;5013610;28;20885;-73
2022/11/08 08:16:00;;;;;;;0.10;0.10;;;9.70;99.90;8.70;97085.00;;;;5020525;28;20691;-73
2022/11/08 08:18:28;;;;;;;0.10;0.10;;;9.70;99.90;8.70;97090.00;;;;5018797;28;20283;-73
2022/11/08 08:20:57;;;;;;;0.10;0.10;;;9.70;99.90;8.80;97087.00;;;;5039905;28;20207;-73
2022/11/08 08:23:27;;;;;;;0.10;0.10;;;9.80;99.90;8.80;97082.00;;;;5029130;28;20241;-73
2022/11/08 08:25:56;;;;;;;0.10;0.10;;;9.80;99.90;8.90;97091.00;;;;5032898;28;20203;-72
2022/11/08 08:28:24;;;;;;;0.10;0.10;;;9.90;99.90;8.90;97079.00;;;;5032632;28;20183;-73
2022/11/08 08:30:52;;;;;;;0.10;0.10;;;9.90;99.90;9.00;97077.00;;;;5018864;28;20211;-73
2022/11/08 08:33:20;;;;;;;0.10;0.10;;;9.90;99.90;9.00;97088.00;;;;5008208;28;20889;-74
2022/11/08 08:35:59;;;;;;;0.10;0.10;;;10.00;99.90;9.10;97096.00;;;;5028535;28;20206;-74
2022/11/08 08:38:30;;;;;;;0.10;0.10;;;10.10;99.90;9.20;97090.00;;;;5009630;28;20210;-73
2022/11/08 08:40:59;;;;;;;0.10;0.10;;;10.20;99.90;8.90;97100.00;;;;5004017;28;20527;-74
2022/11/08 08:43:28;;;;;;;0.03;0.03;;;10.20;99.90;9.30;97086.00;;;;5018253;28;20561;-73
2022/11/08 08:45:59;;;;;;;0.10;0.10;;;10.30;99.90;9.40;97084.00;;;;5022661;28;20604;-74
2022/11/08 08:48:28;;;;;;;0.00;0.00;;;10.40;99.90;9.50;97090.00;;;;5024731;28;20253;-73
2022/11/08 08:50:56;;;;;;;0.10;0.10;;;10.40;99.90;9.50;97088.00;;;;5014886;28;20200;-73
2022/11/08 08:53:25;;;;;;;0.00;0.00;;;10.50;99.90;9.50;97094.00;;;;5016160;28;20227;-73
2022/11/08 08:55:55;;;;;;;0.10;0.10;;;10.50;99.90;9.50;97090.00;;;;5007963;28;20200;-73
2022/11/08 08:58:24;;;;;;;0.10;0.10;;;10.50;99.90;9.60;97092.00;;;;5010173;28;20200;-74
2022/11/08 09:00:52;;;;;;;0.10;0.10;;;10.50;99.90;9.70;97095.00;;;;5014889;28;20200;-73
2022/11/08 09:03:40;;;;;;;0.10;0.10;;;10.60;99.90;9.70;97095.00;;;;5010886;28;20808;-74
2022/11/08 09:06:08;;;;;;;0.10;0.10;;;10.60;99.90;9.70;97083.00;;;;5025800;28;20202;-74
2022/11/08 09:08:37;;;;;;;0.10;0.10;;;10.70;99.90;9.80;97079.00;;;;5014726;28;20230;-73
2022/11/08 09:11:06;;;;;;;0.10;0.10;;;10.70;99.90;9.80;97083.00;;;;5017228;28;20246;-74
2022/11/08 09:13:35;;;;;;;0.10;0.10;;;10.70;99.90;9.90;97078.00;;;;5013480;28;20219;-73
2022/11/08 09:16:06;;;;;;;0.10;0.10;;;10.80;99.90;9.90;97073.00;;;;5011362;28;20187;-74
2022/11/08 09:18:34;;;;;;;0.10;0.10;;;10.90;99.90;10.00;97083.00;;;;5012699;28;20262;-74
2022/11/08 09:21:03;;;;;;;0.10;0.10;;;11.00;99.90;10.10;97060.00;;;;5018996;28;20818;-74
2022/11/08 09:23:31;;;;;;;0.10;0.10;;;11.00;99.90;10.10;97069.00;;;;5016958;28;20717;-73
2022/11/08 09:26:02;;;;;;;0.10;0.10;;;11.10;99.90;10.20;97060.00;;;;5000778;28;20196;-73
2022/11/08 09:28:34;;;;;;;0.10;0.10;;;11.10;99.90;10.30;97063.00;;;;5014848;28;20208;-74
2022/11/08 09:31:04;;;;;;;0.10;0.10;;;11.20;99.90;10.40;97053.00;;;;5025778;28;20254;-74
2022/11/08 09:33:32;;;;;;;0.10;0.10;;;11.30;99.90;10.50;96996.00;;;;5027724;28;20223;-74
2022/11/08 09:36:02;;;;;;;0.10;0.10;;;11.40;99.90;10.60;97048.00;;;;5022099;28;20268;-74
2022/11/08 09:38:31;;;;;;;0.10;0.10;;;11.50;99.90;10.70;97073.00;;;;5020275;28;20218;-74
2022/11/08 09:41:24;;;;;;;0.00;0.00;;;11.60;99.90;10.80;97057.00;;;;5023138;28;20610;-74
2022/11/08 09:44:14;;;;;;;0.10;0.10;;;11.70;99.90;10.90;97048.00;;;;5027763;28;20567;-74
2022/11/08 09:46:50;;;;;;;0.00;0.00;;;11.80;99.90;11.00;97054.00;;;;5002410;28;20203;-74
2022/11/08 09:49:25;;;;;;;0.10;0.10;;;11.90;99.90;11.10;97050.00;;;;4997847;28;20606;-74
2022/11/08 09:51:54;;;;;;;0.10;0.10;;;12.00;99.90;11.20;97042.00;;;;5012395;28;20210;-74
2022/11/08 09:54:30;;;;;;;0.10;0.10;;;12.10;99.90;11.30;97039.00;;;;5011928;28;20227;-73
2022/11/08 09:57:03;;;;;;;0.00;0.00;;;12.20;99.90;11.40;97040.00;;;;5022227;28;20226;-74
2022/11/08 09:59:39;;;;;;;0.10;0.10;;;12.20;99.90;11.40;96988.00;;;;5018171;28;20200;-73
2022/11/08 10:02:17;;;;;;;0.00;0.00;;;12.30;99.90;11.50;97017.00;;;;5026001;28;20206;-74
2022/11/08 10:04:54;;;;;;;0.10;0.10;;;12.40;99.90;11.60;97031.00;;;;5022321;28;20202;-73
2022/11/08 10:07:34;;;;;;;0.10;0.10;;;12.50;99.90;11.60;97036.00;;;;5008417;28;20206;-73
2022/11/08 10:10:33;;;;;;;0.10;0.10;;;12.50;99.90;11.70;97032.00;;;;5012833;28;20199;-74
2022/11/08 10:13:13;;;;;;;0.08;0.08;;;12.60;99.90;11.80;97033.00;;;;5023027;28;20709;-74
2022/11/08 10:15:59;;;;;;;0.00;0.00;;;12.70;99.90;12.00;97043.00;;;;5003912;28;20572;-74
2022/11/08 10:19:19;;;;;;;0.00;0.00;;;12.80;99.90;12.10;97039.00;;;;5008380;28;20721;-74
2022/11/08 10:21:58;;;;;;;0.10;0.10;;;12.90;99.90;12.20;97021.00;;;;5011583;28;20288;-74
2022/11/08 10:24:36;;;;;;;0.10;0.10;;;13.00;99.90;12.30;96970.00;;;;5007226;28;20204;-73
2022/11/08 10:27:13;;;;;;;0.00;0.00;;;13.10;99.90;12.40;97020.00;;;;5005595;28;20207;-74
2022/11/08 10:29:45;;;;;;;0.10;0.10;;;13.20;99.90;12.50;97039.00;;;;5012539;28;20266;-74
2022/11/08 10:32:21;;;;;;;0.10;0.10;;;13.30;99.90;12.60;97036.00;;;;5004704;28;20240;-74
2022/11/08 10:34:58;;;;;;;0.00;0.00;;;13.40;99.90;12.70;97050.00;;;;5014168;28;20211;-74
2022/11/08 10:37:28;;;;;;;0.10;0.10;;;13.50;99.90;12.80;97046.00;;;;4991577;28;20216;-74
2022/11/08 10:40:03;;;;;;;0.00;0.00;;;13.60;99.90;12.90;97046.00;;;;5019392;28;20198;-74
2022/11/08 10:42:41;;;;;;;0.00;0.00;;;13.70;99.90;12.90;97032.00;;;;5019399;28;20218;-73
2022/11/08 10:45:10;;;;;;;0.00;0.00;;;13.80;99.90;13.10;97028.00;;;;5022796;28;20203;-73
2022/11/08 10:47:41;;;;;;;0.10;0.10;;;13.90;99.90;13.10;97025.00;;;;5008348;28;20214;-73
2022/11/08 10:50:15;;;;;;;0.00;0.00;;;13.90;99.90;13.20;97021.00;;;;5012656;28;20190;-74
2022/11/08 10:52:55;;;;;;;0.00;0.00;;;14.00;99.90;13.20;97018.00;;;;5001698;28;20228;-74
2022/11/08 10:55:29;;;;;;;0.00;0.00;;;14.00;99.90;13.30;97015.00;;;;5011462;28;20192;-74
2022/11/08 10:57:58;;;;;;;0.10;0.10;;;14.10;99.90;13.30;97001.00;;;;5017480;28;20213;-74
2022/11/08 11:00:30;;;;;;;0.00;0.00;;;14.10;99.90;13.20;97007.00;;;;5006328;28;20199;-73
2022/11/08 11:03:27;;;;;;;0.00;0.00;;;14.10;99.90;13.40;97004.00;;;;5013793;28;20218;-74
2022/11/08 11:06:02;;;;;;;0.00;0.00;;;14.20;99.90;13.50;97014.00;;;;5027393;28;20203;-74
2022/11/08 11:08:33;;;;;;;0.08;0.08;;;14.30;99.90;13.60;97010.00;;;;5015448;28;20282;-74
2022/11/08 11:11:27;;;;;;;0.00;0.00;;;14.40;99.90;13.60;97007.00;;;;5023339;28;20203;-74
2022/11/08 11:14:11;;;;;;;0.00;0.00;;;14.40;99.90;13.70;96997.00;;;;5031580;28;20215;-74
2022/11/08 11:16:57;;;;;;;0.10;0.10;;;14.50;99.90;13.70;96996.00;;;;5008876;28;20207;-74
2022/11/08 11:19:28;;;;;;;0.10;0.10;;;14.40;99.90;13.70;96958.00;;;;5011124;28;20191;-73
2022/11/08 11:22:03;;;;;;;0.00;0.00;;;14.50;99.90;13.80;96992.00;;;;5019287;28;20204;-74
2022/11/08 11:24:33;;;;;;;0.00;0.00;;;14.50;99.90;13.80;96968.00;;;;5012027;28;20199;-74
2022/11/08 11:27:05;;;;;;;0.00;0.00;;;14.60;99.90;13.80;96977.00;;;;5033677;28;20223;-73
2022/11/08 11:29:35;;;;;;;0.00;0.00;;;14.60;99.90;14.00;96983.00;;;;5034548;28;20205;-73
2022/11/08 11:32:24;;;;;;;0.10;0.10;;;14.80;99.90;14.30;96982.00;;;;5017914;28;21180;-74
2022/11/08 11:34:58;;;;;;;0.00;0.00;;;15.00;99.90;15.70;96976.00;;;;5009885;28;20200;-74
2022/11/08 11:37:36;;;;;;;0.00;0.00;;;15.40;99.90;17.10;96983.00;;;;5018245;28;20227;-73
2022/11/08 11:40:19;;;;;;;0.00;0.00;;;15.70;99.90;17.80;96946.00;;;;5009881;28;20202;-74
2022/11/08 11:43:04;;;;;;;0.10;0.10;;;16.00;99.90;18.40;96976.00;;;;5013905;28;20216;-74